Edzard Schulte — 2CVX9 — position and weather

sailwx.info

Track history (hours):
 
Tides and Currents Weather Stations Pressure Air Temp Water Temp Dewpoint Dewpoint Depression Visibility Wind Speed Wind Dir Waves Ship Positions

Edzard Schulte

Last reported at 2014-Jul-27 23:20 UTC. Time now 2014-Jul-29 06:40 UTC.
Position N 39°22' W 009°57'.

Length 145 m; draft 7.6 m.

Type: Tanker. MMSI: 235076245.

Date/timePositionNaut miles runAvg speedWind from/ knotsBaromVisibWave heightAir tempDewpointWater temp
2014-Jul-27 23:20N 39°22' W 009°57'911.7
2014-Jul-27 22:33N 39°13' W 009°57'1411.2
2014-Jul-27 21:18N 38°59' W 009°57'911.7
2014-Jul-27 20:31N 38°50' W 009°57'1211.5
2014-Jul-27 19:30N 38°38' W 009°56'1111.9
2014-Jul-27 18:33N 38°27' W 009°53'1412.1
2014-Jul-27 17:21N 38°13' W 009°48'13410.4
2014-Jul-27 04:28N 36°25' W 008°08'1311.5
2014-Jul-27 03:21N 36°22' W 007°53'1011.7
2014-Jul-27 02:30N 36°19' W 007°41'1412.0
2014-Jul-27 01:18N 36°15' W 007°24'2412.4
2014-Jul-26 23:20N 36°08' W 006°55'1012.2
2014-Jul-26 22:33N 36°05' W 006°44'6510.5
2014-Jul-26 16:22N 36°01' W 005°24'27011.3
2014-Jul-25 16:31N 37°43' W 000°10'1111.9
2014-Jul-25 15:33N 37°53' W 000°03'7612.1
2014-Jul-25 09:18N 38°57' E 000°49'1011.7
2014-Jul-25 08:29N 39°05' E 000°54'1112.1
2014-Jul-25 07:33N 39°15' E 001°01'2912.2
2014-Jul-25 05:10N 39°39' E 001°22'712.1
2014-Jul-25 04:33N 39°45' E 001°28'1212.1
2014-Jul-25 03:32N 39°55' E 001°38'1212.0
2014-Jul-25 02:33N 40°03' E 001°48'1212.1
2014-Jul-25 01:33N 40°13' E 001°58'1211.7
2014-Jul-25 00:33N 40°22' E 002°07'1211.6
2014-Jul-24 23:33N 40°31' E 002°17'1211.6
2014-Jul-24 22:33N 40°40' E 002°26'1211.9
2014-Jul-24 21:33N 40°49' E 002°37'1211.8
2014-Jul-24 20:33N 40°58' E 002°46'1212.1
2014-Jul-24 19:33N 41°08' E 002°56'1312.7
2014-Jul-24 18:32N 41°18' E 003°07'1211.7
2014-Jul-24 17:33N 41°27' E 003°16'1412.2
2014-Jul-24 16:22N 41°39' E 003°28'1012.7
2014-Jul-24 15:33N 41°47' E 003°36'1412.0
2014-Jul-24 14:22N 41°58' E 003°47'1212.5
2014-Jul-24 13:26N 42°08' E 003°57'1612.7
2014-Jul-24 12:09N 42°21' E 004°10'711.6
2014-Jul-24 11:32N 42°27' E 004°16'1212.1
2014-Jul-24 10:33N 42°36' E 004°25'1312.4
2014-Jul-24 09:32N 42°46' E 004°35'1212.3
2014-Jul-24 08:32N 42°56' E 004°45'1212.1
2014-Jul-24 07:32N 43°06' E 004°55'1110.9
2014-Jul-24 06:33N 43°16' E 004°60'8 7.7
2014-Jul-24 05:33N 43°24' E 004°60'0 0.0
2014-Jul-24 04:33N 43°24' E 004°60'0 0.0
2014-Jul-24 03:33N 43°24' E 004°60'0 0.0
2014-Jul-24 02:33N 43°24' E 004°60'0 0.0
2014-Jul-24 01:33N 43°24' E 004°60'0 0.0
2014-Jul-24 00:30N 43°24' E 004°60'0 0.0
2014-Jul-23 23:33N 43°24' E 004°60'0 0.0
2014-Jul-23 22:33N 43°24' E 004°60'0 0.0
2014-Jul-23 21:33N 43°24' E 004°60'0 0.0
2014-Jul-23 20:33N 43°24' E 004°60'0 0.0
2014-Jul-23 19:33N 43°24' E 004°60'0 0.0
2014-Jul-23 18:33N 43°24' E 004°60'0 0.0
2014-Jul-23 17:33N 43°24' E 004°60'0 0.0
2014-Jul-23 16:33N 43°24' E 004°60'0 0.0
2014-Jul-23 15:33N 43°24' E 004°60'0 0.0
2014-Jul-23 14:33N 43°24' E 004°60'0 0.0
2014-Jul-23 13:33N 43°24' E 004°60'  
2014-Jul-21 05:33N 43°23' E 004°59'2 2.4
2014-Jul-21 04:31N 43°24' E 004°56'0 0.0
2014-Jul-21 03:31N 43°24' E 004°56'0 0.0
2014-Jul-21 02:31N 43°24' E 004°56'0 0.0
2014-Jul-21 01:31N 43°24' E 004°56'0 0.0
2014-Jul-21 00:31N 43°24' E 004°56'0 0.0
2014-Jul-20 23:31N 43°24' E 004°56'0 0.0
2014-Jul-20 22:31N 43°24' E 004°56'0 0.0
2014-Jul-20 21:31N 43°24' E 004°56'0 0.0
2014-Jul-20 20:31N 43°24' E 004°56'0 0.0
2014-Jul-20 19:31N 43°24' E 004°56'0 0.0
2014-Jul-20 18:31N 43°24' E 004°56'0 0.1
2014-Jul-20 17:31N 43°24' E 004°55'0 0.0
2014-Jul-20 16:31N 43°24' E 004°55'0 0.0
2014-Jul-20 15:31N 43°24' E 004°55'0 0.2
2014-Jul-20 14:31N 43°24' E 004°56'0 0.1
2014-Jul-20 13:31N 43°24' E 004°55'0 0.0
2014-Jul-20 12:31N 43°24' E 004°55'0 0.0
2014-Jul-20 11:31N 43°24' E 004°55'0 0.0
2014-Jul-20 10:31N 43°24' E 004°55'0 0.0
2014-Jul-20 09:31N 43°24' E 004°55'0 0.0
2014-Jul-20 08:31N 43°24' E 004°55'0 0.0
2014-Jul-20 07:31N 43°24' E 004°55'0 0.0
2014-Jul-20 06:31N 43°24' E 004°55'0 0.0
2014-Jul-20 05:31N 43°24' E 004°55'0 0.0
2014-Jul-20 04:31N 43°24' E 004°55'0 0.0
2014-Jul-20 03:31N 43°24' E 004°55'0 0.0
2014-Jul-20 02:31N 43°24' E 004°55'0 0.0
2014-Jul-20 01:31N 43°24' E 004°55'0 0.0
2014-Jul-20 00:31N 43°24' E 004°55'0 0.0
2014-Jul-19 23:28N 43°24' E 004°55'0 0.0
2014-Jul-19 22:31N 43°24' E 004°55'0 0.0
2014-Jul-19 21:31N 43°24' E 004°55'0 0.0
2014-Jul-19 20:31N 43°24' E 004°55'0 0.0
2014-Jul-19 19:31N 43°24' E 004°55'0 0.0
2014-Jul-19 18:31N 43°24' E 004°55'0 0.0
2014-Jul-19 17:31N 43°24' E 004°55'0 0.0
2014-Jul-19 16:31N 43°24' E 004°55'0 0.0
2014-Jul-19 15:31N 43°24' E 004°55'0 0.0
2014-Jul-19 14:31N 43°24' E 004°55'0 0.0
2014-Jul-19 13:31N 43°24' E 004°55'0 0.0
2014-Jul-19 12:31N 43°24' E 004°55'0 0.0
2014-Jul-19 11:31N 43°24' E 004°55'0 0.0
2014-Jul-19 10:31N 43°24' E 004°55'0 0.0
2014-Jul-19 09:31N 43°24' E 004°55'0 0.0
2014-Jul-19 08:31N 43°24' E 004°55'0 0.0
2014-Jul-19 07:31N 43°24' E 004°55'0 0.0
2014-Jul-19 06:31N 43°24' E 004°55'0 0.1
2014-Jul-19 05:31N 43°24' E 004°55'0 0.0
2014-Jul-19 04:31N 43°24' E 004°55'0 0.0
2014-Jul-19 03:31N 43°24' E 004°55'0 0.0
2014-Jul-19 02:31N 43°24' E 004°55'0 0.0
2014-Jul-19 01:31N 43°24' E 004°55'0 0.0
2014-Jul-19 00:31N 43°24' E 004°55'0 0.0
2014-Jul-18 23:31N 43°24' E 004°55'0 0.0
2014-Jul-18 22:31N 43°24' E 004°55'0 0.0
2014-Jul-18 21:31N 43°24' E 004°55'0 0.0
2014-Jul-18 20:31N 43°24' E 004°55'0 0.0
2014-Jul-18 19:31N 43°24' E 004°55'0 0.0
2014-Jul-18 18:31N 43°24' E 004°55'0 0.0
2014-Jul-18 17:31N 43°24' E 004°55'0 0.0
2014-Jul-18 16:31N 43°24' E 004°55'0 0.0
2014-Jul-18 15:31N 43°24' E 004°55'0 0.0
2014-Jul-18 14:31N 43°24' E 004°55'0 0.0
2014-Jul-18 13:28N 43°24' E 004°55'0 0.0
2014-Jul-18 12:31N 43°24' E 004°55'0 0.0
2014-Jul-18 11:31N 43°24' E 004°55'0 0.0
2014-Jul-18 10:31N 43°24' E 004°55'0 0.0
2014-Jul-18 09:31N 43°24' E 004°55'0 0.0
2014-Jul-18 08:31N 43°24' E 004°55'0 0.0
2014-Jul-18 07:28N 43°24' E 004°55'0 0.1
2014-Jul-18 06:31N 43°24' E 004°55'0 0.0
2014-Jul-18 05:31N 43°24' E 004°55'0 0.0
2014-Jul-18 04:31N 43°24' E 004°55'0 0.0
2014-Jul-18 03:31N 43°24' E 004°55'0 0.0
2014-Jul-18 02:31N 43°24' E 004°55'0 0.0
2014-Jul-18 01:31N 43°24' E 004°55'0 0.0
2014-Jul-18 00:31N 43°24' E 004°55'0 0.0
2014-Jul-17 23:31N 43°24' E 004°55'  
Track history (hours):
 
Tides and Currents Weather Stations Pressure Air Temp Water Temp Dewpoint Dewpoint Depression Visibility Wind Speed Wind Dir Waves Ship Positions

Edzard Schulte

Last reported at 2014-Jul-27 23:20 UTC. Time now 2014-Jul-29 06:40 UTC.
Position N 39°22' W 009°57'.

Length 145 m; draft 7.6 m.

Type: Tanker. MMSI: 235076245.

Date/timePositionNaut miles runAvg speedWind from/ knotsBaromVisibWave heightAir tempDewpointWater temp
2014-Jul-27 23:20N 39°22' W 009°57'911.7
2014-Jul-27 22:33N 39°13' W 009°57'1411.2
2014-Jul-27 21:18N 38°59' W 009°57'911.7
2014-Jul-27 20:31N 38°50' W 009°57'1211.5
2014-Jul-27 19:30N 38°38' W 009°56'1111.9
2014-Jul-27 18:33N 38°27' W 009°53'1412.1
2014-Jul-27 17:21N 38°13' W 009°48'13410.4
2014-Jul-27 04:28N 36°25' W 008°08'1311.5
2014-Jul-27 03:21N 36°22' W 007°53'1011.7
2014-Jul-27 02:30N 36°19' W 007°41'1412.0
2014-Jul-27 01:18N 36°15' W 007°24'2412.4
2014-Jul-26 23:20N 36°08' W 006°55'1012.2
2014-Jul-26 22:33N 36°05' W 006°44'6510.5
2014-Jul-26 16:22N 36°01' W 005°24'27011.3
2014-Jul-25 16:31N 37°43' W 000°10'1111.9
2014-Jul-25 15:33N 37°53' W 000°03'7612.1
2014-Jul-25 09:18N 38°57' E 000°49'1011.7
2014-Jul-25 08:29N 39°05' E 000°54'1112.1
2014-Jul-25 07:33N 39°15' E 001°01'2912.2
2014-Jul-25 05:10N 39°39' E 001°22'712.1
2014-Jul-25 04:33N 39°45' E 001°28'1212.1
2014-Jul-25 03:32N 39°55' E 001°38'1212.0
2014-Jul-25 02:33N 40°03' E 001°48'1212.1
2014-Jul-25 01:33N 40°13' E 001°58'1211.7
2014-Jul-25 00:33N 40°22' E 002°07'1211.6
2014-Jul-24 23:33N 40°31' E 002°17'1211.6
2014-Jul-24 22:33N 40°40' E 002°26'1211.9
2014-Jul-24 21:33N 40°49' E 002°37'1211.8
2014-Jul-24 20:33N 40°58' E 002°46'1212.1
2014-Jul-24 19:33N 41°08' E 002°56'1312.7
2014-Jul-24 18:32N 41°18' E 003°07'1211.7
2014-Jul-24 17:33N 41°27' E 003°16'1412.2
2014-Jul-24 16:22N 41°39' E 003°28'1012.7
2014-Jul-24 15:33N 41°47' E 003°36'1412.0
2014-Jul-24 14:22N 41°58' E 003°47'1212.5
2014-Jul-24 13:26N 42°08' E 003°57'1612.7
2014-Jul-24 12:09N 42°21' E 004°10'711.6
2014-Jul-24 11:32N 42°27' E 004°16'1212.1
2014-Jul-24 10:33N 42°36' E 004°25'1312.4
2014-Jul-24 09:32N 42°46' E 004°35'1212.3
2014-Jul-24 08:32N 42°56' E 004°45'1212.1
2014-Jul-24 07:32N 43°06' E 004°55'1110.9
2014-Jul-24 06:33N 43°16' E 004°60'8 7.7
2014-Jul-24 05:33N 43°24' E 004°60'0 0.0
2014-Jul-24 04:33N 43°24' E 004°60'0 0.0
2014-Jul-24 03:33N 43°24' E 004°60'0 0.0
2014-Jul-24 02:33N 43°24' E 004°60'0 0.0
2014-Jul-24 01:33N 43°24' E 004°60'0 0.0
2014-Jul-24 00:30N 43°24' E 004°60'0 0.0
2014-Jul-23 23:33N 43°24' E 004°60'0 0.0
2014-Jul-23 22:33N 43°24' E 004°60'0 0.0
2014-Jul-23 21:33N 43°24' E 004°60'0 0.0
2014-Jul-23 20:33N 43°24' E 004°60'0 0.0
2014-Jul-23 19:33N 43°24' E 004°60'0 0.0
2014-Jul-23 18:33N 43°24' E 004°60'0 0.0
2014-Jul-23 17:33N 43°24' E 004°60'0 0.0
2014-Jul-23 16:33N 43°24' E 004°60'0 0.0
2014-Jul-23 15:33N 43°24' E 004°60'0 0.0
2014-Jul-23 14:33N 43°24' E 004°60'0 0.0
2014-Jul-23 13:33N 43°24' E 004°60'  
2014-Jul-21 05:33N 43°23' E 004°59'2 2.4
2014-Jul-21 04:31N 43°24' E 004°56'0 0.0
2014-Jul-21 03:31N 43°24' E 004°56'0 0.0
2014-Jul-21 02:31N 43°24' E 004°56'0 0.0
2014-Jul-21 01:31N 43°24' E 004°56'0 0.0
2014-Jul-21 00:31N 43°24' E 004°56'0 0.0
2014-Jul-20 23:31N 43°24' E 004°56'0 0.0
2014-Jul-20 22:31N 43°24' E 004°56'0 0.0
2014-Jul-20 21:31N 43°24' E 004°56'0 0.0
2014-Jul-20 20:31N 43°24' E 004°56'0 0.0
2014-Jul-20 19:31N 43°24' E 004°56'0 0.0
2014-Jul-20 18:31N 43°24' E 004°56'0 0.1
2014-Jul-20 17:31N 43°24' E 004°55'0 0.0
2014-Jul-20 16:31N 43°24' E 004°55'0 0.0
2014-Jul-20 15:31N 43°24' E 004°55'0 0.2
2014-Jul-20 14:31N 43°24' E 004°56'0 0.1
2014-Jul-20 13:31N 43°24' E 004°55'0 0.0
2014-Jul-20 12:31N 43°24' E 004°55'0 0.0
2014-Jul-20 11:31N 43°24' E 004°55'0 0.0
2014-Jul-20 10:31N 43°24' E 004°55'0 0.0
2014-Jul-20 09:31N 43°24' E 004°55'0 0.0
2014-Jul-20 08:31N 43°24' E 004°55'0 0.0
2014-Jul-20 07:31N 43°24' E 004°55'0 0.0
2014-Jul-20 06:31N 43°24' E 004°55'0 0.0
2014-Jul-20 05:31N 43°24' E 004°55'0 0.0
2014-Jul-20 04:31N 43°24' E 004°55'0 0.0
2014-Jul-20 03:31N 43°24' E 004°55'0 0.0
2014-Jul-20 02:31N 43°24' E 004°55'0 0.0
2014-Jul-20 01:31N 43°24' E 004°55'0 0.0
2014-Jul-20 00:31N 43°24' E 004°55'0 0.0
2014-Jul-19 23:28N 43°24' E 004°55'0 0.0
2014-Jul-19 22:31N 43°24' E 004°55'0 0.0
2014-Jul-19 21:31N 43°24' E 004°55'0 0.0
2014-Jul-19 20:31N 43°24' E 004°55'0 0.0
2014-Jul-19 19:31N 43°24' E 004°55'0 0.0
2014-Jul-19 18:31N 43°24' E 004°55'0 0.0
2014-Jul-19 17:31N 43°24' E 004°55'0 0.0
2014-Jul-19 16:31N 43°24' E 004°55'0 0.0
2014-Jul-19 15:31N 43°24' E 004°55'0 0.0
2014-Jul-19 14:31N 43°24' E 004°55'0 0.0
2014-Jul-19 13:31N 43°24' E 004°55'0 0.0
2014-Jul-19 12:31N 43°24' E 004°55'0 0.0
2014-Jul-19 11:31N 43°24' E 004°55'0 0.0
2014-Jul-19 10:31N 43°24' E 004°55'0 0.0
2014-Jul-19 09:31N 43°24' E 004°55'0 0.0
2014-Jul-19 08:31N 43°24' E 004°55'0 0.0
2014-Jul-19 07:31N 43°24' E 004°55'0 0.0
2014-Jul-19 06:31N 43°24' E 004°55'0 0.1
2014-Jul-19 05:31N 43°24' E 004°55'0 0.0
2014-Jul-19 04:31N 43°24' E 004°55'0 0.0
2014-Jul-19 03:31N 43°24' E 004°55'0 0.0
2014-Jul-19 02:31N 43°24' E 004°55'0 0.0
2014-Jul-19 01:31N 43°24' E 004°55'0 0.0
2014-Jul-19 00:31N 43°24' E 004°55'0 0.0
2014-Jul-18 23:31N 43°24' E 004°55'0 0.0
2014-Jul-18 22:31N 43°24' E 004°55'0 0.0
2014-Jul-18 21:31N 43°24' E 004°55'0 0.0
2014-Jul-18 20:31N 43°24' E 004°55'0 0.0
2014-Jul-18 19:31N 43°24' E 004°55'0 0.0
2014-Jul-18 18:31N 43°24' E 004°55'0 0.0
2014-Jul-18 17:31N 43°24' E 004°55'0 0.0
2014-Jul-18 16:31N 43°24' E 004°55'0 0.0
2014-Jul-18 15:31N 43°24' E 004°55'0 0.0
2014-Jul-18 14:31N 43°24' E 004°55'0 0.0
2014-Jul-18 13:28N 43°24' E 004°55'0 0.0
2014-Jul-18 12:31N 43°24' E 004°55'0 0.0
2014-Jul-18 11:31N 43°24' E 004°55'0 0.0
2014-Jul-18 10:31N 43°24' E 004°55'0 0.0
2014-Jul-18 09:31N 43°24' E 004°55'0 0.0
2014-Jul-18 08:31N 43°24' E 004°55'0 0.0
2014-Jul-18 07:28N 43°24' E 004°55'0 0.1
2014-Jul-18 06:31N 43°24' E 004°55'0 0.0
2014-Jul-18 05:31N 43°24' E 004°55'0 0.0
2014-Jul-18 04:31N 43°24' E 004°55'0 0.0
2014-Jul-18 03:31N 43°24' E 004°55'0 0.0
2014-Jul-18 02:31N 43°24' E 004°55'0 0.0
2014-Jul-18 01:31N 43°24' E 004°55'0 0.0
2014-Jul-18 00:31N 43°24' E 004°55'0 0.0
2014-Jul-17 23:31N 43°24' E 004°55'  

Dump ship's entire track history